sensor_id;sensor_type;location;lat;lon;timestamp;pressure;altitude;pressure_sealevel;temperature;humidity
46756;BME280;32506;52.826;-1.192;2024-02-28T00:01:52;101270.84;;;5.68;66.07
46756;BME280;32506;52.826;-1.192;2024-02-28T00:04:17;101273.84;;;5.65;66.40
46756;BME280;32506;52.826;-1.192;2024-02-28T00:06:43;101275.81;;;5.63;66.33
46756;BME280;32506;52.826;-1.192;2024-02-28T00:09:10;101274.31;;;5.61;66.27
46756;BME280;32506;52.826;-1.192;2024-02-28T00:11:36;101272.00;;;5.58;65.91
46756;BME280;32506;52.826;-1.192;2024-02-28T00:14:01;101269.66;;;5.54;66.00
46756;BME280;32506;52.826;-1.192;2024-02-28T00:16:27;101262.88;;;5.52;65.98
46756;BME280;32506;52.826;-1.192;2024-02-28T00:18:53;101279.94;;;5.49;65.68
46756;BME280;32506;52.826;-1.192;2024-02-28T00:21:19;101267.81;;;5.47;65.68
46756;BME280;32506;52.826;-1.192;2024-02-28T00:23:44;101272.63;;;5.43;65.31
46756;BME280;32506;52.826;-1.192;2024-02-28T00:26:11;101271.94;;;5.41;65.51
46756;BME280;32506;52.826;-1.192;2024-02-28T00:28:37;101274.91;;;5.38;65.42
46756;BME280;32506;52.826;-1.192;2024-02-28T00:31:02;101272.59;;;5.35;65.80
46756;BME280;32506;52.826;-1.192;2024-02-28T00:33:28;101269.44;;;5.31;65.32
46756;BME280;32506;52.826;-1.192;2024-02-28T00:35:53;101259.97;;;5.29;65.10
46756;BME280;32506;52.826;-1.192;2024-02-28T00:38:19;101262.13;;;5.25;65.30
46756;BME280;32506;52.826;-1.192;2024-02-28T00:40:44;101266.94;;;5.21;65.03
46756;BME280;32506;52.826;-1.192;2024-02-28T00:43:10;101263.75;;;5.18;65.19
46756;BME280;32506;52.826;-1.192;2024-02-28T00:45:37;101270.19;;;5.15;65.50
46756;BME280;32506;52.826;-1.192;2024-02-28T00:48:03;101269.72;;;5.12;65.36
46756;BME280;32506;52.826;-1.192;2024-02-28T00:50:29;101272.66;;;5.09;64.93
46756;BME280;32506;52.826;-1.192;2024-02-28T00:52:54;101274.81;;;5.05;64.79
46756;BME280;32506;52.826;-1.192;2024-02-28T00:55:19;101269.00;;;5.01;65.11
46756;BME280;32506;52.826;-1.192;2024-02-28T00:57:45;101270.16;;;4.99;65.01
46756;BME280;32506;52.826;-1.192;2024-02-28T01:00:11;101265.34;;;4.94;65.20
46756;BME280;32506;52.826;-1.192;2024-02-28T01:02:36;101268.28;;;4.91;64.78
46756;BME280;32506;52.826;-1.192;2024-02-28T01:05:02;101263.31;;;4.88;64.91
46756;BME280;32506;52.826;-1.192;2024-02-28T01:07:27;101266.28;;;4.85;64.89
46756;BME280;32506;52.826;-1.192;2024-02-28T01:09:53;101269.22;;;4.82;64.97
46756;BME280;32506;52.826;-1.192;2024-02-28T01:12:18;101273.19;;;4.78;64.74
46756;BME280;32506;52.826;-1.192;2024-02-28T01:14:44;101266.38;;;4.75;64.77
46756;BME280;32506;52.826;-1.192;2024-02-28T01:17:09;101272.81;;;4.73;65.12
46756;BME280;32506;52.826;-1.192;2024-02-28T01:19:34;101279.28;;;4.70;64.67
46756;BME280;32506;52.826;-1.192;2024-02-28T01:22:00;101291.03;;;4.67;65.26
46756;BME280;32506;52.826;-1.192;2024-02-28T01:24:26;101282.56;;;4.64;65.28
46756;BME280;32506;52.826;-1.192;2024-02-28T01:26:51;101280.22;;;4.61;64.83
46756;BME280;32506;52.826;-1.192;2024-02-28T01:29:16;101290.13;;;4.59;65.09
46756;BME280;32506;52.826;-1.192;2024-02-28T01:31:42;101301.84;;;4.56;65.51
46756;BME280;32506;52.826;-1.192;2024-02-28T01:34:07;101305.63;;;4.53;65.06
46756;BME280;32506;52.826;-1.192;2024-02-28T01:36:33;101310.28;;;4.51;65.21
46756;BME280;32506;52.826;-1.192;2024-02-28T01:38:58;101307.91;;;4.48;65.35
46756;BME280;32506;52.826;-1.192;2024-02-28T01:41:24;101299.31;;;4.46;65.07
46756;BME280;32506;52.826;-1.192;2024-02-28T01:43:49;101303.91;;;4.44;65.33
46756;BME280;32506;52.826;-1.192;2024-02-28T01:46:26;101297.13;;;4.42;65.33
46756;BME280;32506;52.826;-1.192;2024-02-28T01:48:53;101287.66;;;4.39;65.10
46756;BME280;32506;52.826;-1.192;2024-02-28T01:51:21;101289.66;;;4.37;65.28
46756;BME280;32506;52.826;-1.192;2024-02-28T01:53:48;101283.66;;;4.35;65.34
46756;BME280;32506;52.826;-1.192;2024-02-28T01:56:15;101292.75;;;4.32;65.21
46756;BME280;32506;52.826;-1.192;2024-02-28T01:58:43;101296.56;;;4.30;65.44
46756;BME280;32506;52.826;-1.192;2024-02-28T02:01:11;101290.41;;;4.29;65.75
46756;BME280;32506;52.826;-1.192;2024-02-28T02:03:37;101292.41;;;4.27;65.88
46756;BME280;32506;52.826;-1.192;2024-02-28T02:06:03;101307.44;;;4.27;65.58
46756;BME280;32506;52.826;-1.192;2024-02-28T02:08:29;101311.09;;;4.26;66.04
46756;BME280;32506;52.826;-1.192;2024-02-28T02:10:55;101318.34;;;4.24;66.09
46756;BME280;32506;52.826;-1.192;2024-02-28T02:13:23;101320.28;;;4.22;65.88
46756;BME280;32506;52.826;-1.192;2024-02-28T02:15:49;101319.47;;;4.21;66.20
46756;BME280;32506;52.826;-1.192;2024-02-28T02:18:14;101315.31;;;4.18;66.28
46756;BME280;32506;52.826;-1.192;2024-02-28T02:20:43;101309.19;;;4.18;65.99
46756;BME280;32506;52.826;-1.192;2024-02-28T02:23:10;101305.84;;;4.16;66.02
46756;BME280;32506;52.826;-1.192;2024-02-28T02:25:43;101312.13;;;4.15;65.99
46756;BME280;32506;52.826;-1.192;2024-02-28T02:28:10;101317.56;;;4.13;66.12
46756;BME280;32506;52.826;-1.192;2024-02-28T02:30:35;101320.38;;;4.12;66.06
46756;BME280;32506;52.826;-1.192;2024-02-28T02:33:00;101317.06;;;4.10;66.25
46756;BME280;32506;52.826;-1.192;2024-02-28T02:35:26;101317.88;;;4.10;66.25
46756;BME280;32506;52.826;-1.192;2024-02-28T02:37:51;101303.16;;;4.08;66.13
46756;BME280;32506;52.826;-1.192;2024-02-28T02:40:17;101298.84;;;4.07;65.96
46756;BME280;32506;52.826;-1.192;2024-02-28T02:42:42;101298.16;;;4.05;65.90
46756;BME280;32506;52.826;-1.192;2024-02-28T02:45:08;101298.31;;;4.03;66.00
46756;BME280;32506;52.826;-1.192;2024-02-28T02:47:33;101304.59;;;4.02;65.88
46756;BME280;32506;52.826;-1.192;2024-02-28T02:49:59;101304.75;;;4.00;66.02
46756;BME280;32506;52.826;-1.192;2024-02-28T02:52:24;101317.44;;;3.97;65.83
46756;BME280;32506;52.826;-1.192;2024-02-28T02:54:50;101320.09;;;3.97;65.96
46756;BME280;32506;52.826;-1.192;2024-02-28T02:57:15;101312.31;;;3.95;65.69
46756;BME280;32506;52.826;-1.192;2024-02-28T02:59:40;101294.75;;;3.94;65.65
46756;BME280;32506;52.826;-1.192;2024-02-28T03:02:06;101294.91;;;3.93;65.73
46756;BME280;32506;52.826;-1.192;2024-02-28T03:04:31;101303.16;;;3.90;65.88
46756;BME280;32506;52.826;-1.192;2024-02-28T03:06:57;101303.28;;;3.88;65.77
46756;BME280;32506;52.826;-1.192;2024-02-28T03:09:22;101309.59;;;3.87;65.54
46756;BME280;32506;52.826;-1.192;2024-02-28T03:11:48;101299.28;;;3.84;65.82
46756;BME280;32506;52.826;-1.192;2024-02-28T03:14:14;101284.44;;;3.83;65.56
46756;BME280;32506;52.826;-1.192;2024-02-28T03:16:42;101277.63;;;3.80;65.26
46756;BME280;32506;52.826;-1.192;2024-02-28T03:19:10;101277.78;;;3.79;65.16
46756;BME280;32506;52.826;-1.192;2024-02-28T03:21:35;101270.97;;;3.76;65.14
46756;BME280;32506;52.826;-1.192;2024-02-28T03:24:01;101284.34;;;3.75;65.10
46756;BME280;32506;52.826;-1.192;2024-02-28T03:26:27;101275.72;;;3.73;65.63
46756;BME280;32506;52.826;-1.192;2024-02-28T03:28:52;101282.00;;;3.72;65.43
46756;BME280;32506;52.826;-1.192;2024-02-28T03:31:18;101288.41;;;3.69;65.52
46756;BME280;32506;52.826;-1.192;2024-02-28T03:33:43;101287.75;;;3.67;65.53
46756;BME280;32506;52.826;-1.192;2024-02-28T03:36:08;101283.44;;;3.66;65.62
46756;BME280;32506;52.826;-1.192;2024-02-28T03:38:34;101270.50;;;3.63;65.43
46756;BME280;32506;52.826;-1.192;2024-02-28T03:40:59;101265.38;;;3.61;65.32
46756;BME280;32506;52.826;-1.192;2024-02-28T03:43:25;101270.78;;;3.60;65.48
46756;BME280;32506;52.826;-1.192;2024-02-28T03:45:50;101275.41;;;3.58;65.69
46756;BME280;32506;52.826;-1.192;2024-02-28T03:48:16;101269.28;;;3.57;65.73
46756;BME280;32506;52.826;-1.192;2024-02-28T03:50:41;101253.72;;;3.54;65.35
46756;BME280;32506;52.826;-1.192;2024-02-28T03:53:07;101272.22;;;3.54;65.44
46756;BME280;32506;52.826;-1.192;2024-02-28T03:55:32;101268.06;;;3.51;65.51
46756;BME280;32506;52.826;-1.192;2024-02-28T03:57:58;101270.06;;;3.49;65.26
46756;BME280;32506;52.826;-1.192;2024-02-28T04:00:23;101271.84;;;3.49;65.39
46756;BME280;32506;52.826;-1.192;2024-02-28T04:02:51;101268.53;;;3.47;65.32
46756;BME280;32506;52.826;-1.192;2024-02-28T04:05:16;101274.78;;;3.46;65.36
46756;BME280;32506;52.826;-1.192;2024-02-28T04:07:42;101279.38;;;3.44;65.68
46756;BME280;32506;52.826;-1.192;2024-02-28T04:10:11;101260.88;;;3.44;65.44
46756;BME280;32506;52.826;-1.192;2024-02-28T04:12:37;101253.09;;;3.42;65.37
46756;BME280;32506;52.826;-1.192;2024-02-28T04:15:02;101263.00;;;3.40;65.52
46756;BME280;32506;52.826;-1.192;2024-02-28T04:17:28;101257.88;;;3.39;65.65
46756;BME280;32506;52.826;-1.192;2024-02-28T04:19:53;101267.59;;;3.38;65.49
46756;BME280;32506;52.826;-1.192;2024-02-28T04:22:19;101266.78;;;3.38;65.46
46756;BME280;32506;52.826;-1.192;2024-02-28T04:24:44;101255.50;;;3.35;65.71
46756;BME280;32506;52.826;-1.192;2024-02-28T04:27:10;101249.41;;;3.35;65.54
46756;BME280;32506;52.826;-1.192;2024-02-28T04:29:37;101251.22;;;3.34;65.18
46756;BME280;32506;52.826;-1.192;2024-02-28T04:32:03;101256.63;;;3.33;65.66
46756;BME280;32506;52.826;-1.192;2024-02-28T04:34:28;101243.59;;;3.31;65.57
46756;BME280;32506;52.826;-1.192;2024-02-28T04:36:54;101243.59;;;3.31;65.43
46756;BME280;32506;52.826;-1.192;2024-02-28T04:39:19;101241.94;;;3.30;65.73
46756;BME280;32506;52.826;-1.192;2024-02-28T04:41:45;101226.22;;;3.29;65.64
46756;BME280;32506;52.826;-1.192;2024-02-28T04:44:10;101228.84;;;3.29;65.82
46756;BME280;32506;52.826;-1.192;2024-02-28T04:46:37;101217.63;;;3.27;65.39
46756;BME280;32506;52.826;-1.192;2024-02-28T04:49:02;101220.09;;;3.28;65.37
46756;BME280;32506;52.826;-1.192;2024-02-28T04:51:28;101214.97;;;3.27;65.91
46756;BME280;32506;52.826;-1.192;2024-02-28T04:53:53;101220.41;;;3.25;65.70
46756;BME280;32506;52.826;-1.192;2024-02-28T04:56:19;101229.16;;;3.26;65.45
46756;BME280;32506;52.826;-1.192;2024-02-28T04:58:44;101218.75;;;3.24;65.84
46756;BME280;32506;52.826;-1.192;2024-02-28T05:01:10;101214.28;;;3.25;65.55
46756;BME280;32506;52.826;-1.192;2024-02-28T05:03:35;101215.28;;;3.24;65.55
46756;BME280;32506;52.826;-1.192;2024-02-28T05:06:01;101221.53;;;3.23;65.65
46756;BME280;32506;52.826;-1.192;2024-02-28T05:08:26;101221.53;;;3.23;65.03
46756;BME280;32506;52.826;-1.192;2024-02-28T05:10:56;101211.13;;;3.21;65.84
46756;BME280;32506;52.826;-1.192;2024-02-28T05:13:21;101225.97;;;3.22;65.64
46756;BME280;32506;52.826;-1.192;2024-02-28T05:15:48;101211.94;;;3.22;65.69
46756;BME280;32506;52.826;-1.192;2024-02-28T05:18:13;101208.50;;;3.21;65.45
46756;BME280;32506;52.826;-1.192;2024-02-28T05:20:39;101204.19;;;3.20;65.90
46756;BME280;32506;52.826;-1.192;2024-02-28T05:23:04;101194.44;;;3.21;66.01
46756;BME280;32506;52.826;-1.192;2024-02-28T05:25:30;101201.53;;;3.20;65.64
46756;BME280;32506;52.826;-1.192;2024-02-28T05:27:55;101191.78;;;3.21;66.04
46756;BME280;32506;52.826;-1.192;2024-02-28T05:30:20;101183.03;;;3.20;65.66
46756;BME280;32506;52.826;-1.192;2024-02-28T05:32:46;101189.28;;;3.19;65.95
46756;BME280;32506;52.826;-1.192;2024-02-28T05:35:11;101172.63;;;3.18;65.99
46756;BME280;32506;52.826;-1.192;2024-02-28T05:37:37;101170.81;;;3.19;65.91
46756;BME280;32506;52.826;-1.192;2024-02-28T05:40:03;101173.44;;;3.19;65.70
46756;BME280;32506;52.826;-1.192;2024-02-28T05:42:28;101162.06;;;3.18;65.77
46756;BME280;32506;52.826;-1.192;2024-02-28T05:44:54;101162.06;;;3.18;65.83
46756;BME280;32506;52.826;-1.192;2024-02-28T05:47:19;101162.06;;;3.18;66.05
46756;BME280;32506;52.826;-1.192;2024-02-28T05:49:45;101168.31;;;3.17;65.95
46756;BME280;32506;52.826;-1.192;2024-02-28T05:52:37;101173.44;;;3.19;66.10
46756;BME280;32506;52.826;-1.192;2024-02-28T05:55:02;101161.22;;;3.18;66.46
46756;BME280;32506;52.826;-1.192;2024-02-28T05:57:28;101165.69;;;3.17;66.71
46756;BME280;32506;52.826;-1.192;2024-02-28T05:59:53;101170.00;;;3.18;66.52
46756;BME280;32506;52.826;-1.192;2024-02-28T06:02:18;101162.06;;;3.18;66.96
46756;BME280;32506;52.826;-1.192;2024-02-28T06:04:44;101166.50;;;3.18;67.09
46756;BME280;32506;52.826;-1.192;2024-02-28T06:07:09;101170.00;;;3.18;66.97
46756;BME280;32506;52.826;-1.192;2024-02-28T06:09:35;101174.28;;;3.19;67.04
46756;BME280;32506;52.826;-1.192;2024-02-28T06:12:00;101175.94;;;3.21;67.62
46756;BME280;32506;52.826;-1.192;2024-02-28T06:14:27;101183.72;;;3.22;67.85
46756;BME280;32506;52.826;-1.192;2024-02-28T06:16:52;101193.44;;;3.22;67.60
46756;BME280;32506;52.826;-1.192;2024-02-28T06:19:18;101194.28;;;3.22;67.78
46756;BME280;32506;52.826;-1.192;2024-02-28T06:21:43;101183.59;;;3.24;68.21
46756;BME280;32506;52.826;-1.192;2024-02-28T06:24:09;101177.13;;;3.26;68.32
46756;BME280;32506;52.826;-1.192;2024-02-28T06:26:34;101164.09;;;3.25;68.06
46756;BME280;32506;52.826;-1.192;2024-02-28T06:29:00;101158.53;;;3.28;68.35
46756;BME280;32506;52.826;-1.192;2024-02-28T06:31:29;101158.53;;;3.28;68.32
46756;BME280;32506;52.826;-1.192;2024-02-28T06:33:57;101151.41;;;3.28;68.43
46756;BME280;32506;52.826;-1.192;2024-02-28T06:36:23;101151.25;;;3.30;68.30
46756;BME280;32506;52.826;-1.192;2024-02-28T06:38:48;101155.72;;;3.29;68.25
46756;BME280;32506;52.826;-1.192;2024-02-28T06:41:14;101160.84;;;3.31;68.63
46756;BME280;32506;52.826;-1.192;2024-02-28T06:43:39;101153.59;;;3.33;68.66
46756;BME280;32506;52.826;-1.192;2024-02-28T06:46:05;101156.22;;;3.33;68.97
46756;BME280;32506;52.826;-1.192;2024-02-28T06:48:30;101156.94;;;3.35;69.06
46756;BME280;32506;52.826;-1.192;2024-02-28T06:50:56;101161.25;;;3.36;69.27
46756;BME280;32506;52.826;-1.192;2024-02-28T06:53:23;101169.97;;;3.36;69.33
46756;BME280;32506;52.826;-1.192;2024-02-28T06:55:48;101163.56;;;3.39;69.22
46756;BME280;32506;52.826;-1.192;2024-02-28T06:58:14;101167.88;;;3.40;68.87
46756;BME280;32506;52.826;-1.192;2024-02-28T07:00:40;101163.25;;;3.42;69.53
46756;BME280;32506;52.826;-1.192;2024-02-28T07:03:06;101159.63;;;3.43;69.70
46756;BME280;32506;52.826;-1.192;2024-02-28T07:05:32;101155.03;;;3.45;69.37
46756;BME280;32506;52.826;-1.192;2024-02-28T07:07:59;101159.31;;;3.46;69.69
46756;BME280;32506;52.826;-1.192;2024-02-28T07:10:24;101156.56;;;3.48;69.69
46756;BME280;32506;52.826;-1.192;2024-02-28T07:12:50;101157.22;;;3.50;69.33
46756;BME280;32506;52.826;-1.192;2024-02-28T07:15:15;101151.78;;;3.51;69.50
46756;BME280;32506;52.826;-1.192;2024-02-28T07:17:44;101154.41;;;3.51;69.52
46756;BME280;32506;52.826;-1.192;2024-02-28T07:20:10;101156.09;;;3.52;69.62
46756;BME280;32506;52.826;-1.192;2024-02-28T07:22:35;101152.47;;;3.53;69.57
46756;BME280;32506;52.826;-1.192;2024-02-28T07:25:01;101158.25;;;3.57;69.59
46756;BME280;32506;52.826;-1.192;2024-02-28T07:27:27;101148.53;;;3.58;69.72
46756;BME280;32506;52.826;-1.192;2024-02-28T07:29:52;101157.13;;;3.60;69.55
46756;BME280;32506;52.826;-1.192;2024-02-28T07:32:18;101157.00;;;3.61;69.88
46756;BME280;32506;52.826;-1.192;2024-02-28T07:34:43;101159.50;;;3.63;69.74
46756;BME280;32506;52.826;-1.192;2024-02-28T07:37:08;101165.44;;;3.65;69.85
46756;BME280;32506;52.826;-1.192;2024-02-28T07:39:34;101178.38;;;3.68;69.64
46756;BME280;32506;52.826;-1.192;2024-02-28T07:41:59;101180.00;;;3.69;69.86
46756;BME280;32506;52.826;-1.192;2024-02-28T07:44:25;101183.34;;;3.71;70.15
46756;BME280;32506;52.826;-1.192;2024-02-28T07:46:51;101169.97;;;3.73;69.48
46756;BME280;32506;52.826;-1.192;2024-02-28T07:49:16;101169.66;;;3.76;69.78
46756;BME280;32506;52.826;-1.192;2024-02-28T07:51:42;101159.75;;;3.78;69.61
46756;BME280;32506;52.826;-1.192;2024-02-28T07:54:07;101160.44;;;3.80;69.44
46756;BME280;32506;52.826;-1.192;2024-02-28T07:56:32;101164.72;;;3.81;69.35
46756;BME280;32506;52.826;-1.192;2024-02-28T07:58:58;101167.06;;;3.84;69.61
46756;BME280;32506;52.826;-1.192;2024-02-28T08:01:23;101161.50;;;3.87;69.94
46756;BME280;32506;52.826;-1.192;2024-02-28T08:03:49;101157.72;;;3.90;69.94
46756;BME280;32506;52.826;-1.192;2024-02-28T08:06:14;101158.38;;;3.92;69.82
46756;BME280;32506;52.826;-1.192;2024-02-28T08:08:44;101156.41;;;3.94;70.09
46756;BME280;32506;52.826;-1.192;2024-02-28T08:11:10;101163.03;;;3.98;70.62
46756;BME280;32506;52.826;-1.192;2024-02-28T08:13:36;101160.25;;;3.99;70.84
46756;BME280;32506;52.826;-1.192;2024-02-28T08:16:01;101164.41;;;4.02;71.05
46756;BME280;32506;52.826;-1.192;2024-02-28T08:18:27;101164.06;;;4.05;71.74
46756;BME280;32506;52.826;-1.192;2024-02-28T08:20:54;101163.75;;;4.08;72.78
46756;BME280;32506;52.826;-1.192;2024-02-28T08:23:23;101166.94;;;4.12;72.83
46756;BME280;32506;52.826;-1.192;2024-02-28T08:25:48;101166.59;;;4.15;73.04
46756;BME280;32506;52.826;-1.192;2024-02-28T08:28:14;101152.25;;;4.17;72.78
46756;BME280;32506;52.826;-1.192;2024-02-28T08:30:39;101146.50;;;4.22;72.49
46756;BME280;32506;52.826;-1.192;2024-02-28T08:33:08;101152.31;;;4.26;72.33
46756;BME280;32506;52.826;-1.192;2024-02-28T08:35:35;101162.56;;;4.29;72.42
46756;BME280;32506;52.826;-1.192;2024-02-28T08:38:01;101160.59;;;4.31;72.20
46756;BME280;32506;52.826;-1.192;2024-02-28T08:40:28;101153.16;;;4.34;72.54
46756;BME280;32506;52.826;-1.192;2024-02-28T08:42:54;101140.47;;;4.38;72.34
46756;BME280;32506;52.826;-1.192;2024-02-28T08:45:19;101132.03;;;4.43;72.46
46756;BME280;32506;52.826;-1.192;2024-02-28T08:47:45;101123.75;;;4.46;72.43
46756;BME280;32506;52.826;-1.192;2024-02-28T08:50:10;101130.44;;;4.50;72.61
46756;BME280;32506;52.826;-1.192;2024-02-28T08:52:36;101127.44;;;4.53;72.48
46756;BME280;32506;52.826;-1.192;2024-02-28T08:55:01;101116.38;;;4.58;72.77
46756;BME280;32506;52.826;-1.192;2024-02-28T08:57:28;101115.22;;;4.60;72.10
46756;BME280;32506;52.826;-1.192;2024-02-28T08:59:55;101117.41;;;4.65;72.52
46756;BME280;32506;52.826;-1.192;2024-02-28T09:02:21;101126.69;;;4.69;72.95
46756;BME280;32506;52.826;-1.192;2024-02-28T09:04:46;101129.81;;;4.73;73.06
46756;BME280;32506;52.826;-1.192;2024-02-28T09:07:16;101125.19;;;4.75;73.77
46756;BME280;32506;52.826;-1.192;2024-02-28T09:09:45;101131.84;;;4.79;73.80
46756;BME280;32506;52.826;-1.192;2024-02-28T09:12:10;101126.19;;;4.82;73.58
46756;BME280;32506;52.826;-1.192;2024-02-28T09:14:35;101127.41;;;4.87;73.92
46756;BME280;32506;52.826;-1.192;2024-02-28T09:17:01;101123.56;;;4.90;73.91
46756;BME280;32506;52.826;-1.192;2024-02-28T09:19:30;101114.47;;;4.93;74.57
46756;BME280;32506;52.826;-1.192;2024-02-28T09:21:56;101116.66;;;4.97;74.39
46756;BME280;32506;52.826;-1.192;2024-02-28T09:24:22;101117.97;;;5.01;74.08
46756;BME280;32506;52.826;-1.192;2024-02-28T09:26:47;101118.34;;;5.07;73.91
46756;BME280;32506;52.826;-1.192;2024-02-28T09:29:13;101123.28;;;5.10;74.39
46756;BME280;32506;52.826;-1.192;2024-02-28T09:31:38;101114.03;;;5.14;73.75
46756;BME280;32506;52.826;-1.192;2024-02-28T09:34:03;101119.66;;;5.19;73.49
46756;BME280;32506;52.826;-1.192;2024-02-28T09:36:33;101118.16;;;5.25;73.42
46756;BME280;32506;52.826;-1.192;2024-02-28T09:38:59;101119.19;;;5.32;73.63
46756;BME280;32506;52.826;-1.192;2024-02-28T09:41:24;101118.50;;;5.38;73.91
46756;BME280;32506;52.826;-1.192;2024-02-28T09:43:52;101123.97;;;5.45;73.77
46756;BME280;32506;52.826;-1.192;2024-02-28T09:46:18;101107.59;;;5.49;74.03
46756;BME280;32506;52.826;-1.192;2024-02-28T09:48:44;101102.44;;;5.56;74.02
46756;BME280;32506;52.826;-1.192;2024-02-28T09:51:15;101095.47;;;5.63;74.00
46756;BME280;32506;52.826;-1.192;2024-02-28T09:53:43;101099.28;;;5.69;74.25
46756;BME280;32506;52.826;-1.192;2024-02-28T09:56:08;101094.97;;;5.76;74.24
46756;BME280;32506;52.826;-1.192;2024-02-28T09:58:34;101101.59;;;5.80;74.16
46756;BME280;32506;52.826;-1.192;2024-02-28T10:01:04;101102.56;;;5.87;74.47
46756;BME280;32506;52.826;-1.192;2024-02-28T10:03:35;101091.28;;;5.94;74.80
46756;BME280;32506;52.826;-1.192;2024-02-28T10:06:02;101092.63;;;5.98;75.17
46756;BME280;32506;52.826;-1.192;2024-02-28T10:08:27;101090.31;;;6.03;75.17
46756;BME280;32506;52.826;-1.192;2024-02-28T10:10:54;101093.25;;;6.08;75.46
46756;BME280;32506;52.826;-1.192;2024-02-28T10:13:21;101075.97;;;6.12;75.04
46756;BME280;32506;52.826;-1.192;2024-02-28T10:15:48;101078.31;;;6.15;75.46
46756;BME280;32506;52.826;-1.192;2024-02-28T10:18:14;101073.97;;;6.22;76.25
46756;BME280;32506;52.826;-1.192;2024-02-28T10:20:39;101068.16;;;6.27;76.03
46756;BME280;32506;52.826;-1.192;2024-02-28T10:23:05;101070.28;;;6.32;75.98
46756;BME280;32506;52.826;-1.192;2024-02-28T10:25:32;101078.56;;;6.37;75.41
46756;BME280;32506;52.826;-1.192;2024-02-28T10:28:01;101070.91;;;6.42;75.11
46756;BME280;32506;52.826;-1.192;2024-02-28T10:30:27;101050.13;;;6.46;75.28
46756;BME280;32506;52.826;-1.192;2024-02-28T10:32:52;101052.09;;;6.52;75.51
46756;BME280;32506;52.826;-1.192;2024-02-28T10:35:18;101042.78;;;6.56;75.17
46756;BME280;32506;52.826;-1.192;2024-02-28T10:37:51;101039.44;;;6.62;75.12
46756;BME280;32506;52.826;-1.192;2024-02-28T10:40:16;101039.88;;;6.66;74.69
46756;BME280;32506;52.826;-1.192;2024-02-28T10:42:42;101042.03;;;6.70;74.57
46756;BME280;32506;52.826;-1.192;2024-02-28T10:45:12;101038.84;;;6.75;74.18
46756;BME280;32506;52.826;-1.192;2024-02-28T10:47:38;101043.63;;;6.80;74.19
46756;BME280;32506;52.826;-1.192;2024-02-28T10:50:04;101026.34;;;6.84;74.50
46756;BME280;32506;52.826;-1.192;2024-02-28T10:52:34;101021.31;;;6.89;74.37
46756;BME280;32506;52.826;-1.192;2024-02-28T10:55:01;101015.47;;;6.94;74.37
46756;BME280;32506;52.826;-1.192;2024-02-28T10:57:29;101007.13;;;6.97;74.02
46756;BME280;32506;52.826;-1.192;2024-02-28T10:59:55;100996.97;;;7.00;74.17
46756;BME280;32506;52.826;-1.192;2024-02-28T11:02:23;100999.25;;;7.03;74.13
46756;BME280;32506;52.826;-1.192;2024-02-28T11:04:52;100997.91;;;7.08;74.50
46756;BME280;32506;52.826;-1.192;2024-02-28T11:07:24;101002.88;;;7.11;74.42
46756;BME280;32506;52.826;-1.192;2024-02-28T11:09:54;100996.38;;;7.13;74.51
46756;BME280;32506;52.826;-1.192;2024-02-28T11:12:27;100997.84;;;7.16;74.28
46756;BME280;32506;52.826;-1.192;2024-02-28T11:15:00;100999.31;;;7.18;74.35
46756;BME280;32506;52.826;-1.192;2024-02-28T11:17:30;100990.78;;;7.23;74.52
46756;BME280;32506;52.826;-1.192;2024-02-28T11:19:56;100977.13;;;7.26;74.69
46756;BME280;32506;52.826;-1.192;2024-02-28T11:22:22;100967.59;;;7.32;73.79
46756;BME280;32506;52.826;-1.192;2024-02-28T11:24:47;100958.28;;;7.36;73.83
46756;BME280;32506;52.826;-1.192;2024-02-28T11:27:15;100963.03;;;7.41;73.48
46756;BME280;32506;52.826;-1.192;2024-02-28T11:29:41;100961.84;;;7.43;73.57
46756;BME280;32506;52.826;-1.192;2024-02-28T11:32:07;100961.28;;;7.48;73.64
46756;BME280;32506;52.826;-1.192;2024-02-28T11:34:36;100966.06;;;7.52;74.13
46756;BME280;32506;52.826;-1.192;2024-02-28T11:37:02;100970.00;;;7.56;74.07
46756;BME280;32506;52.826;-1.192;2024-02-28T11:39:29;100980.28;;;7.60;74.24
46756;BME280;32506;52.826;-1.192;2024-02-28T11:41:55;100971.94;;;7.63;73.37
46756;BME280;32506;52.826;-1.192;2024-02-28T11:44:21;100963.59;;;7.66;73.31
46756;BME280;32506;52.826;-1.192;2024-02-28T11:46:47;100966.88;;;7.68;73.55
46756;BME280;32506;52.826;-1.192;2024-02-28T11:49:13;100954.03;;;7.71;73.63
46756;BME280;32506;52.826;-1.192;2024-02-28T11:51:42;100958.78;;;7.76;73.75
46756;BME280;32506;52.826;-1.192;2024-02-28T11:54:08;100943.28;;;7.80;73.79
46756;BME280;32506;52.826;-1.192;2024-02-28T11:56:40;100947.03;;;7.85;73.62
46756;BME280;32506;52.826;-1.192;2024-02-28T11:59:06;100954.50;;;7.90;73.42
46756;BME280;32506;52.826;-1.192;2024-02-28T12:01:38;100951.25;;;7.95;73.26
46756;BME280;32506;52.826;-1.192;2024-02-28T12:04:04;100948.06;;;7.99;73.16
46756;BME280;32506;52.826;-1.192;2024-02-28T12:06:31;100944.00;;;8.03;73.12
46756;BME280;32506;52.826;-1.192;2024-02-28T12:08:56;100939.94;;;8.07;72.85
46756;BME280;32506;52.826;-1.192;2024-02-28T12:11:24;100934.06;;;8.12;73.03
46756;BME280;32506;52.826;-1.192;2024-02-28T12:13:53;100929.84;;;8.18;72.79
46756;BME280;32506;52.826;-1.192;2024-02-28T12:16:22;100925.59;;;8.23;72.63
46756;BME280;32506;52.826;-1.192;2024-02-28T12:18:48;100918.88;;;8.28;72.48
46756;BME280;32506;52.826;-1.192;2024-02-28T12:21:13;100914.63;;;8.33;72.78
46756;BME280;32506;52.826;-1.192;2024-02-28T12:23:38;100909.56;;;8.38;72.18
46756;BME280;32506;52.826;-1.192;2024-02-28T12:26:04;100902.81;;;8.43;72.63
46756;BME280;32506;52.826;-1.192;2024-02-28T12:28:29;100912.75;;;8.49;72.61
46756;BME280;32506;52.826;-1.192;2024-02-28T12:30:56;100899.88;;;8.52;72.42
46756;BME280;32506;52.826;-1.192;2024-02-28T12:33:21;100901.78;;;8.59;72.32
46756;BME280;32506;52.826;-1.192;2024-02-28T12:35:48;100894.03;;;8.64;72.37
46756;BME280;32506;52.826;-1.192;2024-02-28T12:38:13;100888.13;;;8.68;72.24
46756;BME280;32506;52.826;-1.192;2024-02-28T12:40:40;100877.91;;;8.72;72.11
46756;BME280;32506;52.826;-1.192;2024-02-28T12:43:07;100871.16;;;8.76;72.08
46756;BME280;32506;52.826;-1.192;2024-02-28T12:45:33;100860.09;;;8.79;72.11